sensor_id;sensor_type;location;lat;lon;timestamp;P1;durP1;ratioP1;P2;durP2;ratioP2
2129;SDS011;1071;52.544;13.374;2023-05-24T00:01:22;36.97;;;22.73;;
2129;SDS011;1071;52.544;13.374;2023-05-24T00:03:50;15.50;;;11.07;;
2129;SDS011;1071;52.544;13.374;2023-05-24T00:06:18;10.60;;;6.07;;
2129;SDS011;1071;52.544;13.374;2023-05-24T00:08:47;30.23;;;21.47;;
2129;SDS011;1071;52.544;13.374;2023-05-24T00:11:14;19.50;;;10.43;;
2129;SDS011;1071;52.544;13.374;2023-05-24T00:13:41;6.53;;;3.70;;
2129;SDS011;1071;52.544;13.374;2023-05-24T00:16:08;8.80;;;3.27;;
2129;SDS011;1071;52.544;13.374;2023-05-24T00:18:35;28.33;;;17.43;;
2129;SDS011;1071;52.544;13.374;2023-05-24T00:21:05;10.97;;;6.40;;
2129;SDS011;1071;52.544;13.374;2023-05-24T00:23:32;21.17;;;15.20;;
2129;SDS011;1071;52.544;13.374;2023-05-24T00:26:00;11.27;;;5.50;;
2129;SDS011;1071;52.544;13.374;2023-05-24T00:28:28;13.63;;;5.93;;
2129;SDS011;1071;52.544;13.374;2023-05-24T00:30:56;6.87;;;4.23;;
2129;SDS011;1071;52.544;13.374;2023-05-24T00:33:23;6.47;;;3.43;;
2129;SDS011;1071;52.544;13.374;2023-05-24T00:35:51;17.17;;;9.57;;
2129;SDS011;1071;52.544;13.374;2023-05-24T00:38:20;11.20;;;4.10;;
2129;SDS011;1071;52.544;13.374;2023-05-24T00:40:47;9.60;;;4.50;;
2129;SDS011;1071;52.544;13.374;2023-05-24T00:43:15;20.27;;;12.43;;
2129;SDS011;1071;52.544;13.374;2023-05-24T00:45:43;51.30;;;33.63;;
2129;SDS011;1071;52.544;13.374;2023-05-24T00:48:10;51.25;;;37.20;;
2129;SDS011;1071;52.544;13.374;2023-05-24T00:50:39;18.47;;;11.37;;
2129;SDS011;1071;52.544;13.374;2023-05-24T00:53:06;17.60;;;12.50;;
2129;SDS011;1071;52.544;13.374;2023-05-24T00:55:38;66.40;;;45.10;;
2129;SDS011;1071;52.544;13.374;2023-05-24T00:58:05;65.10;;;45.50;;
2129;SDS011;1071;52.544;13.374;2023-05-24T01:00:35;34.27;;;24.90;;
2129;SDS011;1071;52.544;13.374;2023-05-24T01:03:03;39.10;;;28.57;;
2129;SDS011;1071;52.544;13.374;2023-05-24T01:05:30;15.87;;;9.77;;
2129;SDS011;1071;52.544;13.374;2023-05-24T01:08:01;18.37;;;10.53;;
2129;SDS011;1071;52.544;13.374;2023-05-24T01:10:39;45.53;;;22.17;;
2129;SDS011;1071;52.544;13.374;2023-05-24T01:13:17;40.80;;;24.10;;
2129;SDS011;1071;52.544;13.374;2023-05-24T01:15:51;18.63;;;10.67;;
2129;SDS011;1071;52.544;13.374;2023-05-24T01:18:25;23.10;;;16.53;;
2129;SDS011;1071;52.544;13.374;2023-05-24T01:20:58;14.57;;;9.87;;
2129;SDS011;1071;52.544;13.374;2023-05-24T01:23:35;13.83;;;6.70;;
2129;SDS011;1071;52.544;13.374;2023-05-24T01:26:18;61.73;;;33.70;;
2129;SDS011;1071;52.544;13.374;2023-05-24T01:28:57;20.73;;;14.00;;
2129;SDS011;1071;52.544;13.374;2023-05-24T01:31:26;41.88;;;23.45;;
2129;SDS011;1071;52.544;13.374;2023-05-24T01:33:53;60.87;;;38.50;;
2129;SDS011;1071;52.544;13.374;2023-05-24T01:36:22;10.70;;;7.50;;
2129;SDS011;1071;52.544;13.374;2023-05-24T01:38:53;6.07;;;3.80;;
2129;SDS011;1071;52.544;13.374;2023-05-24T01:41:22;9.10;;;2.93;;
2129;SDS011;1071;52.544;13.374;2023-05-24T01:44:03;14.03;;;7.77;;
2129;SDS011;1071;52.544;13.374;2023-05-24T01:46:38;11.47;;;4.73;;
2129;SDS011;1071;52.544;13.374;2023-05-24T01:49:08;11.13;;;4.37;;
2129;SDS011;1071;52.544;13.374;2023-05-24T01:51:43;16.07;;;3.97;;
2129;SDS011;1071;52.544;13.374;2023-05-24T01:54:15;10.13;;;3.50;;
2129;SDS011;1071;52.544;13.374;2023-05-24T01:56:47;14.50;;;6.33;;
2129;SDS011;1071;52.544;13.374;2023-05-24T01:59:18;9.03;;;4.87;;
2129;SDS011;1071;52.544;13.374;2023-05-24T02:01:47;7.50;;;4.20;;
2129;SDS011;1071;52.544;13.374;2023-05-24T02:04:15;9.00;;;4.60;;
2129;SDS011;1071;52.544;13.374;2023-05-24T02:06:42;17.13;;;8.20;;
2129;SDS011;1071;52.544;13.374;2023-05-24T02:09:11;10.67;;;3.53;;
2129;SDS011;1071;52.544;13.374;2023-05-24T02:11:38;16.13;;;6.20;;
2129;SDS011;1071;52.544;13.374;2023-05-24T02:14:05;9.67;;;4.73;;
2129;SDS011;1071;52.544;13.374;2023-05-24T02:16:33;10.70;;;3.30;;
2129;SDS011;1071;52.544;13.374;2023-05-24T02:19:06;11.47;;;4.43;;
2129;SDS011;1071;52.544;13.374;2023-05-24T02:21:33;5.27;;;2.67;;
2129;SDS011;1071;52.544;13.374;2023-05-24T02:24:00;9.20;;;3.53;;
2129;SDS011;1071;52.544;13.374;2023-05-24T02:26:27;8.73;;;3.90;;
2129;SDS011;1071;52.544;13.374;2023-05-24T02:28:54;7.77;;;3.37;;
2129;SDS011;1071;52.544;13.374;2023-05-24T02:31:21;6.23;;;2.30;;
2129;SDS011;1071;52.544;13.374;2023-05-24T02:33:51;6.23;;;3.20;;
2129;SDS011;1071;52.544;13.374;2023-05-24T02:36:19;5.37;;;3.47;;
2129;SDS011;1071;52.544;13.374;2023-05-24T02:38:47;13.53;;;7.07;;
2129;SDS011;1071;52.544;13.374;2023-05-24T02:41:14;15.50;;;10.10;;
2129;SDS011;1071;52.544;13.374;2023-05-24T02:43:42;12.30;;;6.63;;
2129;SDS011;1071;52.544;13.374;2023-05-24T02:46:09;15.73;;;9.40;;
2129;SDS011;1071;52.544;13.374;2023-05-24T02:48:39;33.70;;;20.13;;
2129;SDS011;1071;52.544;13.374;2023-05-24T02:51:10;29.13;;;16.27;;
2129;SDS011;1071;52.544;13.374;2023-05-24T02:53:38;33.93;;;20.43;;
2129;SDS011;1071;52.544;13.374;2023-05-24T02:56:07;15.23;;;9.20;;
2129;SDS011;1071;52.544;13.374;2023-05-24T02:58:35;22.67;;;10.67;;
2129;SDS011;1071;52.544;13.374;2023-05-24T03:01:04;14.00;;;8.67;;
2129;SDS011;1071;52.544;13.374;2023-05-24T03:03:31;8.43;;;3.90;;
2129;SDS011;1071;52.544;13.374;2023-05-24T03:05:58;6.60;;;3.23;;
2129;SDS011;1071;52.544;13.374;2023-05-24T03:08:27;8.37;;;4.03;;
2129;SDS011;1071;52.544;13.374;2023-05-24T03:10:54;17.10;;;7.23;;
2129;SDS011;1071;52.544;13.374;2023-05-24T03:13:28;9.97;;;4.20;;
2129;SDS011;1071;52.544;13.374;2023-05-24T03:16:08;7.50;;;3.23;;
2129;SDS011;1071;52.544;13.374;2023-05-24T03:18:35;12.00;;;4.30;;
2129;SDS011;1071;52.544;13.374;2023-05-24T03:21:02;6.73;;;3.50;;
2129;SDS011;1071;52.544;13.374;2023-05-24T03:23:30;8.30;;;3.93;;
2129;SDS011;1071;52.544;13.374;2023-05-24T03:25:59;10.93;;;4.93;;
2129;SDS011;1071;52.544;13.374;2023-05-24T03:28:26;8.60;;;4.30;;
2129;SDS011;1071;52.544;13.374;2023-05-24T03:30:54;15.27;;;6.63;;
2129;SDS011;1071;52.544;13.374;2023-05-24T03:33:21;8.20;;;4.33;;
2129;SDS011;1071;52.544;13.374;2023-05-24T03:35:48;7.20;;;3.50;;
2129;SDS011;1071;52.544;13.374;2023-05-24T03:38:15;11.35;;;4.13;;
2129;SDS011;1071;52.544;13.374;2023-05-24T03:40:43;13.40;;;3.57;;
2129;SDS011;1071;52.544;13.374;2023-05-24T03:43:10;5.30;;;3.93;;
2129;SDS011;1071;52.544;13.374;2023-05-24T03:45:37;10.85;;;4.30;;
2129;SDS011;1071;52.544;13.374;2023-05-24T03:48:04;11.57;;;4.10;;
2129;SDS011;1071;52.544;13.374;2023-05-24T03:50:31;9.33;;;3.30;;
2129;SDS011;1071;52.544;13.374;2023-05-24T03:53:05;15.63;;;4.40;;
2129;SDS011;1071;52.544;13.374;2023-05-24T03:55:39;11.77;;;5.40;;
2129;SDS011;1071;52.544;13.374;2023-05-24T03:58:11;6.00;;;3.10;;
2129;SDS011;1071;52.544;13.374;2023-05-24T04:00:38;6.80;;;3.53;;
2129;SDS011;1071;52.544;13.374;2023-05-24T04:03:05;11.90;;;3.73;;
2129;SDS011;1071;52.544;13.374;2023-05-24T04:05:33;7.20;;;3.80;;
2129;SDS011;1071;52.544;13.374;2023-05-24T04:08:00;6.50;;;3.60;;
2129;SDS011;1071;52.544;13.374;2023-05-24T04:10:27;7.67;;;3.57;;
2129;SDS011;1071;52.544;13.374;2023-05-24T04:12:54;11.57;;;4.93;;
2129;SDS011;1071;52.544;13.374;2023-05-24T04:15:26;7.57;;;3.27;;
2129;SDS011;1071;52.544;13.374;2023-05-24T04:18:02;10.13;;;4.40;;
2129;SDS011;1071;52.544;13.374;2023-05-24T04:20:30;10.07;;;5.20;;
2129;SDS011;1071;52.544;13.374;2023-05-24T04:22:57;16.37;;;8.90;;
2129;SDS011;1071;52.544;13.374;2023-05-24T04:25:25;8.70;;;3.80;;
2129;SDS011;1071;52.544;13.374;2023-05-24T04:27:52;8.83;;;4.50;;
2129;SDS011;1071;52.544;13.374;2023-05-24T04:30:21;8.17;;;3.13;;
2129;SDS011;1071;52.544;13.374;2023-05-24T04:32:54;11.50;;;3.70;;
2129;SDS011;1071;52.544;13.374;2023-05-24T04:35:21;10.40;;;3.17;;
2129;SDS011;1071;52.544;13.374;2023-05-24T04:37:49;11.20;;;3.77;;
2129;SDS011;1071;52.544;13.374;2023-05-24T04:40:17;12.93;;;6.27;;
2129;SDS011;1071;52.544;13.374;2023-05-24T04:42:46;12.57;;;4.33;;
2129;SDS011;1071;52.544;13.374;2023-05-24T04:45:14;7.00;;;4.10;;
2129;SDS011;1071;52.544;13.374;2023-05-24T04:47:42;9.60;;;3.40;;
2129;SDS011;1071;52.544;13.374;2023-05-24T04:50:09;7.00;;;3.70;;
2129;SDS011;1071;52.544;13.374;2023-05-24T04:52:36;10.00;;;4.80;;
2129;SDS011;1071;52.544;13.374;2023-05-24T04:55:04;20.60;;;9.77;;
2129;SDS011;1071;52.544;13.374;2023-05-24T04:57:31;11.07;;;4.70;;
2129;SDS011;1071;52.544;13.374;2023-05-24T04:59:58;9.63;;;3.80;;
2129;SDS011;1071;52.544;13.374;2023-05-24T05:02:31;6.17;;;3.27;;
2129;SDS011;1071;52.544;13.374;2023-05-24T05:04:59;7.00;;;3.67;;
2129;SDS011;1071;52.544;13.374;2023-05-24T05:07:27;14.50;;;4.50;;
2129;SDS011;1071;52.544;13.374;2023-05-24T05:09:56;14.83;;;4.87;;
2129;SDS011;1071;52.544;13.374;2023-05-24T05:12:23;12.63;;;4.87;;
2129;SDS011;1071;52.544;13.374;2023-05-24T05:14:50;6.57;;;3.87;;
2129;SDS011;1071;52.544;13.374;2023-05-24T05:17:17;11.80;;;3.77;;
2129;SDS011;1071;52.544;13.374;2023-05-24T05:19:44;10.17;;;5.60;;
2129;SDS011;1071;52.544;13.374;2023-05-24T05:22:15;12.30;;;4.70;;
2129;SDS011;1071;52.544;13.374;2023-05-24T05:24:42;9.17;;;4.57;;
2129;SDS011;1071;52.544;13.374;2023-05-24T05:27:09;12.73;;;4.37;;
2129;SDS011;1071;52.544;13.374;2023-05-24T05:29:36;12.23;;;4.30;;
2129;SDS011;1071;52.544;13.374;2023-05-24T05:32:03;18.93;;;7.07;;
2129;SDS011;1071;52.544;13.374;2023-05-24T05:34:30;11.50;;;4.60;;
2129;SDS011;1071;52.544;13.374;2023-05-24T05:36:57;16.77;;;5.00;;
2129;SDS011;1071;52.544;13.374;2023-05-24T05:39:26;10.63;;;3.47;;
2129;SDS011;1071;52.544;13.374;2023-05-24T05:41:55;24.87;;;7.03;;
2129;SDS011;1071;52.544;13.374;2023-05-24T05:44:32;14.40;;;4.90;;
2129;SDS011;1071;52.544;13.374;2023-05-24T05:46:59;14.20;;;5.53;;
2129;SDS011;1071;52.544;13.374;2023-05-24T05:49:27;19.48;;;7.15;;
2129;SDS011;1071;52.544;13.374;2023-05-24T05:51:58;19.47;;;6.20;;
2129;SDS011;1071;52.544;13.374;2023-05-24T05:54:26;16.90;;;4.73;;
2129;SDS011;1071;52.544;13.374;2023-05-24T05:56:53;8.27;;;4.10;;
2129;SDS011;1071;52.544;13.374;2023-05-24T05:59:20;17.20;;;5.20;;
2129;SDS011;1071;52.544;13.374;2023-05-24T06:01:47;10.67;;;4.07;;
2129;SDS011;1071;52.544;13.374;2023-05-24T06:04:17;13.93;;;4.70;;
2129;SDS011;1071;52.544;13.374;2023-05-24T06:06:44;13.00;;;4.80;;
2129;SDS011;1071;52.544;13.374;2023-05-24T06:09:13;17.03;;;5.70;;
2129;SDS011;1071;52.544;13.374;2023-05-24T06:11:42;14.97;;;4.97;;
2129;SDS011;1071;52.544;13.374;2023-05-24T06:14:09;13.77;;;4.83;;
2129;SDS011;1071;52.544;13.374;2023-05-24T06:16:37;18.90;;;6.97;;
2129;SDS011;1071;52.544;13.374;2023-05-24T06:19:09;17.97;;;6.80;;
2129;SDS011;1071;52.544;13.374;2023-05-24T06:21:40;15.83;;;5.40;;
2129;SDS011;1071;52.544;13.374;2023-05-24T06:24:11;15.10;;;6.20;;
2129;SDS011;1071;52.544;13.374;2023-05-24T06:26:39;14.33;;;5.53;;
2129;SDS011;1071;52.544;13.374;2023-05-24T06:29:10;17.57;;;5.83;;
2129;SDS011;1071;52.544;13.374;2023-05-24T06:31:38;19.50;;;7.77;;
2129;SDS011;1071;52.544;13.374;2023-05-24T06:34:07;16.80;;;6.30;;
2129;SDS011;1071;52.544;13.374;2023-05-24T06:36:34;17.23;;;6.73;;
2129;SDS011;1071;52.544;13.374;2023-05-24T06:39:06;15.93;;;6.50;;
2129;SDS011;1071;52.544;13.374;2023-05-24T06:41:34;22.33;;;6.73;;
2129;SDS011;1071;52.544;13.374;2023-05-24T06:44:01;15.57;;;5.77;;
2129;SDS011;1071;52.544;13.374;2023-05-24T06:46:30;20.10;;;6.53;;
2129;SDS011;1071;52.544;13.374;2023-05-24T06:48:57;10.80;;;5.60;;
2129;SDS011;1071;52.544;13.374;2023-05-24T06:51:27;16.80;;;6.00;;
2129;SDS011;1071;52.544;13.374;2023-05-24T06:53:54;14.70;;;5.13;;
2129;SDS011;1071;52.544;13.374;2023-05-24T06:56:21;15.40;;;5.30;;
2129;SDS011;1071;52.544;13.374;2023-05-24T06:58:49;13.93;;;5.47;;
2129;SDS011;1071;52.544;13.374;2023-05-24T07:01:16;12.70;;;4.87;;
2129;SDS011;1071;52.544;13.374;2023-05-24T07:03:45;16.63;;;5.33;;
2129;SDS011;1071;52.544;13.374;2023-05-24T07:06:12;19.13;;;5.53;;
2129;SDS011;1071;52.544;13.374;2023-05-24T07:08:39;15.77;;;5.57;;
2129;SDS011;1071;52.544;13.374;2023-05-24T07:11:06;17.00;;;6.87;;
2129;SDS011;1071;52.544;13.374;2023-05-24T07:13:35;14.33;;;5.17;;
2129;SDS011;1071;52.544;13.374;2023-05-24T07:16:02;22.03;;;5.97;;
2129;SDS011;1071;52.544;13.374;2023-05-24T07:18:29;11.70;;;5.17;;
2129;SDS011;1071;52.544;13.374;2023-05-24T07:20:58;13.97;;;4.83;;
2129;SDS011;1071;52.544;13.374;2023-05-24T07:23:25;17.53;;;6.57;;
2129;SDS011;1071;52.544;13.374;2023-05-24T07:25:51;17.27;;;5.70;;
2129;SDS011;1071;52.544;13.374;2023-05-24T07:28:18;11.00;;;4.90;;
2129;SDS011;1071;52.544;13.374;2023-05-24T07:30:46;18.67;;;8.17;;
2129;SDS011;1071;52.544;13.374;2023-05-24T07:33:13;13.17;;;5.10;;
2129;SDS011;1071;52.544;13.374;2023-05-24T07:35:40;12.70;;;5.03;;
2129;SDS011;1071;52.544;13.374;2023-05-24T07:38:10;15.53;;;5.20;;
2129;SDS011;1071;52.544;13.374;2023-05-24T07:40:37;13.00;;;5.33;;
2129;SDS011;1071;52.544;13.374;2023-05-24T07:43:04;11.20;;;5.37;;
2129;SDS011;1071;52.544;13.374;2023-05-24T07:45:38;26.60;;;11.43;;
2129;SDS011;1071;52.544;13.374;2023-05-24T07:48:05;13.20;;;5.77;;
2129;SDS011;1071;52.544;13.374;2023-05-24T07:50:32;18.00;;;7.67;;
2129;SDS011;1071;52.544;13.374;2023-05-24T07:52:59;15.10;;;6.53;;
2129;SDS011;1071;52.544;13.374;2023-05-24T07:55:27;12.13;;;5.50;;
2129;SDS011;1071;52.544;13.374;2023-05-24T07:57:54;19.83;;;5.23;;
2129;SDS011;1071;52.544;13.374;2023-05-24T08:00:21;13.90;;;6.40;;
2129;SDS011;1071;52.544;13.374;2023-05-24T08:02:49;13.00;;;4.93;;
2129;SDS011;1071;52.544;13.374;2023-05-24T08:05:16;18.43;;;5.90;;
2129;SDS011;1071;52.544;13.374;2023-05-24T08:07:43;8.97;;;5.20;;
2129;SDS011;1071;52.544;13.374;2023-05-24T08:10:10;11.70;;;5.30;;
2129;SDS011;1071;52.544;13.374;2023-05-24T08:12:39;14.37;;;6.90;;
2129;SDS011;1071;52.544;13.374;2023-05-24T08:15:06;10.57;;;4.57;;
2129;SDS011;1071;52.544;13.374;2023-05-24T08:17:34;21.53;;;10.87;;
2129;SDS011;1071;52.544;13.374;2023-05-24T08:20:01;10.80;;;4.90;;
2129;SDS011;1071;52.544;13.374;2023-05-24T08:22:30;16.10;;;6.47;;
2129;SDS011;1071;52.544;13.374;2023-05-24T08:24:57;15.73;;;5.47;;
2129;SDS011;1071;52.544;13.374;2023-05-24T08:27:24;16.00;;;5.50;;
2129;SDS011;1071;52.544;13.374;2023-05-24T08:29:54;14.30;;;5.83;;
2129;SDS011;1071;52.544;13.374;2023-05-24T08:32:21;10.43;;;4.83;;
2129;SDS011;1071;52.544;13.374;2023-05-24T08:34:48;9.53;;;4.77;;
2129;SDS011;1071;52.544;13.374;2023-05-24T08:37:15;10.60;;;5.47;;
2129;SDS011;1071;52.544;13.374;2023-05-24T08:39:44;12.40;;;7.73;;
2129;SDS011;1071;52.544;13.374;2023-05-24T08:42:11;9.87;;;4.93;;
2129;SDS011;1071;52.544;13.374;2023-05-24T08:44:40;13.10;;;5.30;;
2129;SDS011;1071;52.544;13.374;2023-05-24T08:47:14;10.77;;;5.57;;
2129;SDS011;1071;52.544;13.374;2023-05-24T08:49:41;15.87;;;5.60;;
2129;SDS011;1071;52.544;13.374;2023-05-24T08:52:08;12.93;;;5.33;;
2129;SDS011;1071;52.544;13.374;2023-05-24T08:54:37;13.80;;;5.50;;
2129;SDS011;1071;52.544;13.374;2023-05-24T08:57:05;10.60;;;5.50;;
2129;SDS011;1071;52.544;13.374;2023-05-24T08:59:34;13.97;;;8.20;;
2129;SDS011;1071;52.544;13.374;2023-05-24T09:02:03;19.43;;;7.40;;
2129;SDS011;1071;52.544;13.374;2023-05-24T09:04:32;18.27;;;7.80;;
2129;SDS011;1071;52.544;13.374;2023-05-24T09:07:01;15.03;;;5.43;;
2129;SDS011;1071;52.544;13.374;2023-05-24T09:09:29;14.00;;;6.20;;
2129;SDS011;1071;52.544;13.374;2023-05-24T09:12:01;13.10;;;6.40;;
2129;SDS011;1071;52.544;13.374;2023-05-24T09:14:32;12.47;;;6.03;;
2129;SDS011;1071;52.544;13.374;2023-05-24T09:16:59;11.10;;;5.57;;
2129;SDS011;1071;52.544;13.374;2023-05-24T09:19:27;14.43;;;7.63;;
2129;SDS011;1071;52.544;13.374;2023-05-24T09:21:55;11.00;;;5.40;;
2129;SDS011;1071;52.544;13.374;2023-05-24T09:24:45;9.97;;;4.57;;
2129;SDS011;1071;52.544;13.374;2023-05-24T09:27:13;15.20;;;5.70;;
2129;SDS011;1071;52.544;13.374;2023-05-24T09:29:41;11.03;;;6.07;;
2129;SDS011;1071;52.544;13.374;2023-05-24T09:32:10;8.63;;;5.40;;
2129;SDS011;1071;52.544;13.374;2023-05-24T09:34:38;12.13;;;4.13;;
2129;SDS011;1071;52.544;13.374;2023-05-24T09:37:09;9.00;;;4.90;;
2129;SDS011;1071;52.544;13.374;2023-05-24T09:39:38;16.33;;;5.83;;
2129;SDS011;1071;52.544;13.374;2023-05-24T09:42:07;9.80;;;4.80;;
2129;SDS011;1071;52.544;13.374;2023-05-24T09:44:34;12.83;;;5.10;;
2129;SDS011;1071;52.544;13.374;2023-05-24T09:47:01;9.00;;;3.83;;
2129;SDS011;1071;52.544;13.374;2023-05-24T09:49:30;9.77;;;4.13;;
2129;SDS011;1071;52.544;13.374;2023-05-24T09:51:57;9.80;;;4.83;;
2129;SDS011;1071;52.544;13.374;2023-05-24T09:54:28;13.77;;;5.33;;
2129;SDS011;1071;52.544;13.374;2023-05-24T09:56:58;19.53;;;5.27;;
2129;SDS011;1071;52.544;13.374;2023-05-24T09:59:32;11.13;;;4.80;;
2129;SDS011;1071;52.544;13.374;2023-05-24T10:02:06;11.90;;;5.07;;
2129;SDS011;1071;52.544;13.374;2023-05-24T10:04:35;8.67;;;4.70;;
2129;SDS011;1071;52.544;13.374;2023-05-24T10:07:03;13.60;;;5.30;;
2129;SDS011;1071;52.544;13.374;2023-05-24T10:09:32;10.23;;;4.57;;
2129;SDS011;1071;52.544;13.374;2023-05-24T10:12:01;16.43;;;6.00;;
2129;SDS011;1071;52.544;13.374;2023-05-24T10:14:30;9.60;;;4.57;;
2129;SDS011;1071;52.544;13.374;2023-05-24T10:17:00;9.83;;;3.87;;
2129;SDS011;1071;52.544;13.374;2023-05-24T10:19:27;9.03;;;4.10;;
2129;SDS011;1071;52.544;13.374;2023-05-24T10:21:55;16.47;;;4.80;;
2129;SDS011;1071;52.544;13.374;2023-05-24T10:24:23;14.57;;;5.07;;
2129;SDS011;1071;52.544;13.374;2023-05-24T10:26:54;10.27;;;4.50;;
2129;SDS011;1071;52.544;13.374;2023-05-24T10:29:26;6.30;;;4.50;;
2129;SDS011;1071;52.544;13.374;2023-05-24T10:32:02;9.90;;;3.60;;
2129;SDS011;1071;52.544;13.374;2023-05-24T10:34:33;7.23;;;4.93;;
2129;SDS011;1071;52.544;13.374;2023-05-24T10:37:01;9.10;;;5.10;;
2129;SDS011;1071;52.544;13.374;2023-05-24T10:39:29;8.20;;;4.23;;
2129;SDS011;1071;52.544;13.374;2023-05-24T10:42:02;8.40;;;3.90;;
2129;SDS011;1071;52.544;13.374;2023-05-24T10:44:30;8.03;;;3.30;;
2129;SDS011;1071;52.544;13.374;2023-05-24T10:47:01;19.03;;;5.87;;
2129;SDS011;1071;52.544;13.374;2023-05-24T10:49:32;10.80;;;4.77;;
2129;SDS011;1071;52.544;13.374;2023-05-24T10:52:05;10.50;;;5.80;;
2129;SDS011;1071;52.544;13.374;2023-05-24T10:54:33;6.53;;;4.37;;
2129;SDS011;1071;52.544;13.374;2023-05-24T10:57:03;5.67;;;4.13;;
2129;SDS011;1071;52.544;13.374;2023-05-24T10:59:32;5.73;;;3.30;;
2129;SDS011;1071;52.544;13.374;2023-05-24T11:02:03;8.13;;;4.50;;
2129;SDS011;1071;52.544;13.374;2023-05-24T11:04:35;14.30;;;3.87;;
2129;SDS011;1071;52.544;13.374;2023-05-24T11:07:04;6.70;;;3.37;;
2129;SDS011;1071;52.544;13.374;2023-05-24T11:09:33;9.00;;;3.80;;
2129;SDS011;1071;52.544;13.374;2023-05-24T11:12:02;9.20;;;4.03;;
2129;SDS011;1071;52.544;13.374;2023-05-24T11:14:33;6.33;;;3.77;;
2129;SDS011;1071;52.544;13.374;2023-05-24T11:17:03;5.00;;;3.27;;
2129;SDS011;1071;52.544;13.374;2023-05-24T11:19:31;5.90;;;4.10;;
2129;SDS011;1071;52.544;13.374;2023-05-24T11:22:02;5.17;;;3.03;;
2129;SDS011;1071;52.544;13.374;2023-05-24T11:24:32;7.90;;;4.30;;
2129;SDS011;1071;52.544;13.374;2023-05-24T11:27:00;9.50;;;4.20;;
2129;SDS011;1071;52.544;13.374;2023-05-24T11:29:29;5.57;;;3.77;;
2129;SDS011;1071;52.544;13.374;2023-05-24T11:31:57;8.77;;;4.77;;
2129;SDS011;1071;52.544;13.374;2023-05-24T11:34:28;8.33;;;3.63;;
2129;SDS011;1071;52.544;13.374;2023-05-24T11:36:56;8.10;;;3.30;;
2129;SDS011;1071;52.544;13.374;2023-05-24T11:39:41;6.30;;;3.50;;
2129;SDS011;1071;52.544;13.374;2023-05-24T11:42:08;6.20;;;4.47;;
2129;SDS011;1071;52.544;13.374;2023-05-24T11:44:37;5.50;;;4.47;;
2129;SDS011;1071;52.544;13.374;2023-05-24T11:47:10;5.33;;;3.40;;
2129;SDS011;1071;52.544;13.374;2023-05-24T11:49:39;5.73;;;3.47;;
2129;SDS011;1071;52.544;13.374;2023-05-24T11:52:06;7.23;;;3.63;;
2129;SDS011;1071;52.544;13.374;2023-05-24T11:54:33;5.83;;;3.47;;
2129;SDS011;1071;52.544;13.374;2023-05-24T11:57:03;8.57;;;2.80;;
2129;SDS011;1071;52.544;13.374;2023-05-24T11:59:31;4.27;;;3.30;;
2129;SDS011;1071;52.544;13.374;2023-05-24T12:02:03;6.77;;;3.13;;
2129;SDS011;1071;52.544;13.374;2023-05-24T12:04:34;9.60;;;4.77;;
2129;SDS011;1071;52.544;13.374;2023-05-24T12:07:01;6.90;;;4.87;;
2129;SDS011;1071;52.544;13.374;2023-05-24T12:09:29;4.70;;;3.13;;
2129;SDS011;1071;52.544;13.374;2023-05-24T12:11:56;6.13;;;3.40;;
2129;SDS011;1071;52.544;13.374;2023-05-24T12:14:26;10.23;;;4.27;;
2129;SDS011;1071;52.544;13.374;2023-05-24T12:16:54;8.00;;;3.40;;
2129;SDS011;1071;52.544;13.374;2023-05-24T12:19:29;9.40;;;4.73;;
2129;SDS011;1071;52.544;13.374;2023-05-24T12:21:59;6.00;;;3.80;;
2129;SDS011;1071;52.544;13.374;2023-05-24T12:24:33;9.30;;;3.70;;
2129;SDS011;1071;52.544;13.374;2023-05-24T12:27:03;6.37;;;3.73;;
2129;SDS011;1071;52.544;13.374;2023-05-24T12:29:33;3.60;;;2.83;;
2129;SDS011;1071;52.544;13.374;2023-05-24T12:32:00;6.80;;;3.30;;
2129;SDS011;1071;52.544;13.374;2023-05-24T12:34:32;5.30;;;3.17;;
2129;SDS011;1071;52.544;13.374;2023-05-24T12:36:59;5.63;;;4.00;;
2129;SDS011;1071;52.544;13.374;2023-05-24T12:39:26;6.63;;;3.60;;
2129;SDS011;1071;52.544;13.374;2023-05-24T12:41:55;3.47;;;2.87;;
2129;SDS011;1071;52.544;13.374;2023-05-24T12:44:23;6.87;;;3.67;;
2129;SDS011;1071;52.544;13.374;2023-05-24T12:46:51;6.20;;;3.93;;
2129;SDS011;1071;52.544;13.374;2023-05-24T12:49:19;8.63;;;3.87;;
2129;SDS011;1071;52.544;13.374;2023-05-24T12:51:48;6.30;;;3.60;;
2129;SDS011;1071;52.544;13.374;2023-05-24T12:54:16;4.70;;;3.40;;
2129;SDS011;1071;52.544;13.374;2023-05-24T12:56:44;9.57;;;4.30;;
2129;SDS011;1071;52.544;13.374;2023-05-24T12:59:11;4.87;;;2.90;;
2129;SDS011;1071;52.544;13.374;2023-05-24T13:01:38;4.23;;;2.83;;
2129;SDS011;1071;52.544;13.374;2023-05-24T13:04:06;6.30;;;3.80;;
2129;SDS011;1071;52.544;13.374;2023-05-24T13:06:34;8.93;;;4.60;;
2129;SDS011;1071;52.544;13.374;2023-05-24T13:09:18;8.13;;;4.00;;
2129;SDS011;1071;52.544;13.374;2023-05-24T13:11:47;8.90;;;3.87;;
2129;SDS011;1071;52.544;13.374;2023-05-24T13:14:14;5.73;;;3.43;;
2129;SDS011;1071;52.544;13.374;2023-05-24T13:16:42;6.57;;;4.03;;
2129;SDS011;1071;52.544;13.374;2023-05-24T13:19:09;12.83;;;4.60;;
2129;SDS011;1071;52.544;13.374;2023-05-24T13:21:36;9.43;;;4.27;;
2129;SDS011;1071;52.544;13.374;2023-05-24T13:24:03;6.63;;;3.70;;
2129;SDS011;1071;52.544;13.374;2023-05-24T13:26:32;6.30;;;3.03;;
2129;SDS011;1071;52.544;13.374;2023-05-24T13:29:03;4.93;;;3.47;;
2129;SDS011;1071;52.544;13.374;2023-05-24T13:31:30;6.50;;;4.37;;
2129;SDS011;1071;52.544;13.374;2023-05-24T13:33:57;4.50;;;3.73;;
2129;SDS011;1071;52.544;13.374;2023-05-24T13:36:25;6.33;;;3.50;;
2129;SDS011;1071;52.544;13.374;2023-05-24T13:38:52;7.10;;;3.47;;
2129;SDS011;1071;52.544;13.374;2023-05-24T13:41:19;4.87;;;3.53;;
2129;SDS011;1071;52.544;13.374;2023-05-24T13:43:47;4.90;;;4.20;;
2129;SDS011;1071;52.544;13.374;2023-05-24T13:51:58;5.57;;;4.37;;
2129;SDS011;1071;52.544;13.374;2023-05-24T13:54:25;8.13;;;4.60;;
2129;SDS011;1071;52.544;13.374;2023-05-24T13:56:52;5.50;;;3.80;;
2129;SDS011;1071;52.544;13.374;2023-05-24T13:59:22;4.30;;;3.37;;
2129;SDS011;1071;52.544;13.374;2023-05-24T14:01:49;6.80;;;5.30;;
2129;SDS011;1071;52.544;13.374;2023-05-24T14:04:16;6.93;;;4.40;;
2129;SDS011;1071;52.544;13.374;2023-05-24T14:06:43;8.20;;;3.73;;
2129;SDS011;1071;52.544;13.374;2023-05-24T14:09:10;8.50;;;4.10;;
2129;SDS011;1071;52.544;13.374;2023-05-24T14:11:39;5.67;;;3.40;;
2129;SDS011;1071;52.544;13.374;2023-05-24T14:14:06;5.80;;;4.00;;
2129;SDS011;1071;52.544;13.374;2023-05-24T14:16:34;4.73;;;4.03;;
2129;SDS011;1071;52.544;13.374;2023-05-24T14:19:01;8.10;;;3.80;;
2129;SDS011;1071;52.544;13.374;2023-05-24T14:21:31;7.27;;;4.10;;
2129;SDS011;1071;52.544;13.374;2023-05-24T14:23:58;4.77;;;3.57;;
2129;SDS011;1071;52.544;13.374;2023-05-24T14:26:25;8.07;;;3.80;;
2129;SDS011;1071;52.544;13.374;2023-05-24T14:28:53;4.47;;;3.10;;
2129;SDS011;1071;52.544;13.374;2023-05-24T14:31:21;4.77;;;3.83;;
2129;SDS011;1071;52.544;13.374;2023-05-24T14:33:50;7.13;;;3.10;;
2129;SDS011;1071;52.544;13.374;2023-05-24T14:36:17;7.47;;;4.03;;
2129;SDS011;1071;52.544;13.374;2023-05-24T14:38:48;6.23;;;4.07;;
2129;SDS011;1071;52.544;13.374;2023-05-24T14:41:16;5.90;;;3.37;;
2129;SDS011;1071;52.544;13.374;2023-05-24T14:43:43;6.60;;;4.03;;
2129;SDS011;1071;52.544;13.374;2023-05-24T14:46:10;6.37;;;3.90;;
2129;SDS011;1071;52.544;13.374;2023-05-24T14:48:37;7.73;;;4.40;;
2129;SDS011;1071;52.544;13.374;2023-05-24T14:51:07;5.80;;;3.93;;
2129;SDS011;1071;52.544;13.374;2023-05-24T14:53:34;6.10;;;3.57;;
2129;SDS011;1071;52.544;13.374;2023-05-24T14:56:01;5.23;;;3.73;;
2129;SDS011;1071;52.544;13.374;2023-05-24T14:58:29;6.23;;;4.10;;
2129;SDS011;1071;52.544;13.374;2023-05-24T15:00:57;6.80;;;4.20;;
2129;SDS011;1071;52.544;13.374;2023-05-24T15:03:27;8.30;;;5.20;;
2129;SDS011;1071;52.544;13.374;2023-05-24T15:05:54;4.73;;;3.93;;
2129;SDS011;1071;52.544;13.374;2023-05-24T15:08:22;5.33;;;4.00;;